sensor_id;sensor_type;location;lat;lon;timestamp;P1;durP1;ratioP1;P2;durP2;ratioP2
4547;SDS011;2286;51.570;7.090;2022-09-21T00:01:55;6.97;;;6.40;;
4547;SDS011;2286;51.570;7.090;2022-09-21T00:04:22;8.30;;;7.13;;
4547;SDS011;2286;51.570;7.090;2022-09-21T00:06:48;6.97;;;6.27;;
4547;SDS011;2286;51.570;7.090;2022-09-21T00:09:15;8.80;;;6.87;;
4547;SDS011;2286;51.570;7.090;2022-09-21T00:11:42;8.50;;;6.10;;
4547;SDS011;2286;51.570;7.090;2022-09-21T00:14:10;6.43;;;5.80;;
4547;SDS011;2286;51.570;7.090;2022-09-21T00:16:38;7.00;;;5.97;;
4547;SDS011;2286;51.570;7.090;2022-09-21T00:19:07;9.63;;;5.90;;
4547;SDS011;2286;51.570;7.090;2022-09-21T00:21:34;6.00;;;5.40;;
4547;SDS011;2286;51.570;7.090;2022-09-21T00:24:03;8.83;;;5.13;;
4547;SDS011;2286;51.570;7.090;2022-09-21T00:26:30;6.97;;;5.30;;
4547;SDS011;2286;51.570;7.090;2022-09-21T00:28:58;6.17;;;5.30;;
4547;SDS011;2286;51.570;7.090;2022-09-21T00:31:27;6.50;;;5.90;;
4547;SDS011;2286;51.570;7.090;2022-09-21T00:33:55;8.70;;;6.47;;
4547;SDS011;2286;51.570;7.090;2022-09-21T00:36:24;7.37;;;6.10;;
4547;SDS011;2286;51.570;7.090;2022-09-21T00:38:52;8.17;;;5.87;;
4547;SDS011;2286;51.570;7.090;2022-09-21T00:41:21;8.60;;;5.70;;
4547;SDS011;2286;51.570;7.090;2022-09-21T00:47:05;5.83;;;5.30;;
4547;SDS011;2286;51.570;7.090;2022-09-21T00:49:36;7.03;;;5.50;;
4547;SDS011;2286;51.570;7.090;2022-09-21T00:52:05;8.90;;;6.37;;
4547;SDS011;2286;51.570;7.090;2022-09-21T00:54:34;9.30;;;6.90;;
4547;SDS011;2286;51.570;7.090;2022-09-21T00:57:04;8.10;;;6.90;;
4547;SDS011;2286;51.570;7.090;2022-09-21T00:59:33;10.57;;;7.03;;
4547;SDS011;2286;51.570;7.090;2022-09-21T01:02:02;10.30;;;7.20;;
4547;SDS011;2286;51.570;7.090;2022-09-21T01:04:30;6.80;;;6.10;;
4547;SDS011;2286;51.570;7.090;2022-09-21T01:06:58;8.60;;;6.70;;
4547;SDS011;2286;51.570;7.090;2022-09-21T01:09:29;9.60;;;7.03;;
4547;SDS011;2286;51.570;7.090;2022-09-21T01:12:00;9.20;;;7.77;;
4547;SDS011;2286;51.570;7.090;2022-09-21T01:14:38;7.97;;;7.17;;
4547;SDS011;2286;51.570;7.090;2022-09-21T01:17:21;9.23;;;6.77;;
4547;SDS011;2286;51.570;7.090;2022-09-21T01:22:53;7.77;;;6.20;;
4547;SDS011;2286;51.570;7.090;2022-09-21T01:25:36;7.37;;;6.70;;
4547;SDS011;2286;51.570;7.090;2022-09-21T01:28:11;9.17;;;6.17;;
4547;SDS011;2286;51.570;7.090;2022-09-21T01:30:48;7.03;;;6.43;;
4547;SDS011;2286;51.570;7.090;2022-09-21T01:33:20;7.03;;;6.30;;
4547;SDS011;2286;51.570;7.090;2022-09-21T01:35:51;7.93;;;6.83;;
4547;SDS011;2286;51.570;7.090;2022-09-21T01:38:23;9.23;;;6.97;;
4547;SDS011;2286;51.570;7.090;2022-09-21T01:40:52;7.90;;;7.10;;
4547;SDS011;2286;51.570;7.090;2022-09-21T01:43:28;7.40;;;6.37;;
4547;SDS011;2286;51.570;7.090;2022-09-21T01:46:00;7.87;;;7.00;;
4547;SDS011;2286;51.570;7.090;2022-09-21T01:48:29;6.77;;;6.07;;
4547;SDS011;2286;51.570;7.090;2022-09-21T01:51:00;10.27;;;7.17;;
4547;SDS011;2286;51.570;7.090;2022-09-21T01:53:31;7.13;;;6.53;;
4547;SDS011;2286;51.570;7.090;2022-09-21T01:56:03;7.70;;;6.90;;
4547;SDS011;2286;51.570;7.090;2022-09-21T01:58:36;9.77;;;6.80;;
4547;SDS011;2286;51.570;7.090;2022-09-21T02:01:09;8.30;;;6.97;;
4547;SDS011;2286;51.570;7.090;2022-09-21T02:03:40;9.97;;;7.63;;
4547;SDS011;2286;51.570;7.090;2022-09-21T02:06:12;7.50;;;6.30;;
4547;SDS011;2286;51.570;7.090;2022-09-21T02:08:41;14.43;;;9.30;;
4547;SDS011;2286;51.570;7.090;2022-09-21T02:11:08;9.60;;;7.47;;
4547;SDS011;2286;51.570;7.090;2022-09-21T02:13:38;8.37;;;7.57;;
4547;SDS011;2286;51.570;7.090;2022-09-21T02:16:14;10.30;;;7.07;;
4547;SDS011;2286;51.570;7.090;2022-09-21T02:18:52;10.83;;;7.40;;
4547;SDS011;2286;51.570;7.090;2022-09-21T02:21:29;10.57;;;6.53;;
4547;SDS011;2286;51.570;7.090;2022-09-21T02:24:01;9.00;;;7.10;;
4547;SDS011;2286;51.570;7.090;2022-09-21T02:26:34;7.97;;;7.20;;
4547;SDS011;2286;51.570;7.090;2022-09-21T02:29:06;7.80;;;7.00;;
4547;SDS011;2286;51.570;7.090;2022-09-21T02:31:43;14.03;;;6.83;;
4547;SDS011;2286;51.570;7.090;2022-09-21T02:34:16;7.80;;;6.57;;
4547;SDS011;2286;51.570;7.090;2022-09-21T02:36:47;9.53;;;7.07;;
4547;SDS011;2286;51.570;7.090;2022-09-21T02:39:23;7.53;;;6.83;;
4547;SDS011;2286;51.570;7.090;2022-09-21T02:41:57;6.73;;;6.10;;
4547;SDS011;2286;51.570;7.090;2022-09-21T02:44:31;8.57;;;7.10;;
4547;SDS011;2286;51.570;7.090;2022-09-21T02:47:04;12.10;;;7.00;;
4547;SDS011;2286;51.570;7.090;2022-09-21T02:49:36;7.70;;;6.90;;
4547;SDS011;2286;51.570;7.090;2022-09-21T02:52:07;7.67;;;6.90;;
4547;SDS011;2286;51.570;7.090;2022-09-21T02:54:37;7.80;;;7.10;;
4547;SDS011;2286;51.570;7.090;2022-09-21T02:57:07;9.30;;;8.00;;
4547;SDS011;2286;51.570;7.090;2022-09-21T02:59:36;8.60;;;7.70;;
4547;SDS011;2286;51.570;7.090;2022-09-21T03:02:04;9.00;;;7.27;;
4547;SDS011;2286;51.570;7.090;2022-09-21T03:04:32;8.17;;;7.30;;
4547;SDS011;2286;51.570;7.090;2022-09-21T03:06:58;10.97;;;8.40;;
4547;SDS011;2286;51.570;7.090;2022-09-21T03:09:25;8.57;;;7.77;;
4547;SDS011;2286;51.570;7.090;2022-09-21T03:11:53;8.07;;;7.27;;
4547;SDS011;2286;51.570;7.090;2022-09-21T03:14:19;8.50;;;7.67;;
4547;SDS011;2286;51.570;7.090;2022-09-21T03:16:46;8.03;;;7.20;;
4547;SDS011;2286;51.570;7.090;2022-09-21T03:19:15;8.57;;;7.63;;
4547;SDS011;2286;51.570;7.090;2022-09-21T03:21:41;7.80;;;7.10;;
4547;SDS011;2286;51.570;7.090;2022-09-21T03:24:08;9.50;;;7.87;;
4547;SDS011;2286;51.570;7.090;2022-09-21T03:26:35;8.40;;;6.83;;
4547;SDS011;2286;51.570;7.090;2022-09-21T03:29:02;11.27;;;9.00;;
4547;SDS011;2286;51.570;7.090;2022-09-21T03:31:29;12.33;;;7.93;;
4547;SDS011;2286;51.570;7.090;2022-09-21T03:33:56;8.00;;;7.20;;
4547;SDS011;2286;51.570;7.090;2022-09-21T03:36:24;8.57;;;7.77;;
4547;SDS011;2286;51.570;7.090;2022-09-21T03:38:51;9.80;;;8.90;;
4547;SDS011;2286;51.570;7.090;2022-09-21T03:41:18;9.47;;;7.90;;
4547;SDS011;2286;51.570;7.090;2022-09-21T03:43:44;9.77;;;8.70;;
4547;SDS011;2286;51.570;7.090;2022-09-21T03:46:11;15.07;;;9.50;;
4547;SDS011;2286;51.570;7.090;2022-09-21T03:48:38;8.67;;;7.77;;
4547;SDS011;2286;51.570;7.090;2022-09-21T03:51:06;13.83;;;10.33;;
4547;SDS011;2286;51.570;7.090;2022-09-21T03:53:34;15.33;;;13.73;;
4547;SDS011;2286;51.570;7.090;2022-09-21T03:56:01;10.27;;;9.17;;
4547;SDS011;2286;51.570;7.090;2022-09-21T03:58:28;12.53;;;11.23;;
4547;SDS011;2286;51.570;7.090;2022-09-21T04:00:59;22.73;;;15.90;;
4547;SDS011;2286;51.570;7.090;2022-09-21T04:03:27;15.20;;;11.57;;
4547;SDS011;2286;51.570;7.090;2022-09-21T04:05:54;12.70;;;9.90;;
4547;SDS011;2286;51.570;7.090;2022-09-21T04:08:21;11.83;;;10.80;;
4547;SDS011;2286;51.570;7.090;2022-09-21T04:10:49;13.93;;;12.50;;
4547;SDS011;2286;51.570;7.090;2022-09-21T04:13:16;14.73;;;11.40;;
4547;SDS011;2286;51.570;7.090;2022-09-21T04:15:43;11.80;;;10.60;;
4547;SDS011;2286;51.570;7.090;2022-09-21T04:18:10;15.90;;;10.20;;
4547;SDS011;2286;51.570;7.090;2022-09-21T04:20:37;12.00;;;10.20;;
4547;SDS011;2286;51.570;7.090;2022-09-21T04:23:05;17.70;;;10.30;;
4547;SDS011;2286;51.570;7.090;2022-09-21T04:25:32;11.00;;;9.53;;
4547;SDS011;2286;51.570;7.090;2022-09-21T04:28:01;10.33;;;9.40;;
4547;SDS011;2286;51.570;7.090;2022-09-21T04:30:27;10.63;;;8.90;;
4547;SDS011;2286;51.570;7.090;2022-09-21T04:32:54;12.33;;;10.00;;
4547;SDS011;2286;51.570;7.090;2022-09-21T04:35:21;14.80;;;10.37;;
4547;SDS011;2286;51.570;7.090;2022-09-21T04:37:48;13.70;;;11.50;;
4547;SDS011;2286;51.570;7.090;2022-09-21T04:40:14;12.23;;;10.10;;
4547;SDS011;2286;51.570;7.090;2022-09-21T04:42:41;11.07;;;10.17;;
4547;SDS011;2286;51.570;7.090;2022-09-21T04:45:10;11.23;;;9.93;;
4547;SDS011;2286;51.570;7.090;2022-09-21T04:47:36;11.17;;;9.90;;
4547;SDS011;2286;51.570;7.090;2022-09-21T04:50:04;10.87;;;9.63;;
4547;SDS011;2286;51.570;7.090;2022-09-21T04:52:31;14.67;;;10.60;;
4547;SDS011;2286;51.570;7.090;2022-09-21T04:54:58;18.33;;;10.90;;
4547;SDS011;2286;51.570;7.090;2022-09-21T04:57:25;11.80;;;10.53;;
4547;SDS011;2286;51.570;7.090;2022-09-21T04:59:51;12.40;;;10.80;;
4547;SDS011;2286;51.570;7.090;2022-09-21T05:02:20;16.73;;;11.63;;
4547;SDS011;2286;51.570;7.090;2022-09-21T05:04:47;14.20;;;10.60;;
4547;SDS011;2286;51.570;7.090;2022-09-21T05:07:14;13.57;;;11.87;;
4547;SDS011;2286;51.570;7.090;2022-09-21T05:09:41;11.10;;;10.10;;
4547;SDS011;2286;51.570;7.090;2022-09-21T05:12:29;12.60;;;11.10;;
4547;SDS011;2286;51.570;7.090;2022-09-21T05:14:56;10.97;;;10.00;;
4547;SDS011;2286;51.570;7.090;2022-09-21T05:17:24;11.63;;;10.33;;
4547;SDS011;2286;51.570;7.090;2022-09-21T05:19:51;13.50;;;11.67;;
4547;SDS011;2286;51.570;7.090;2022-09-21T05:22:18;16.47;;;10.97;;
4547;SDS011;2286;51.570;7.090;2022-09-21T05:24:45;13.07;;;11.73;;
4547;SDS011;2286;51.570;7.090;2022-09-21T05:27:12;18.33;;;13.30;;
4547;SDS011;2286;51.570;7.090;2022-09-21T05:29:39;16.10;;;14.40;;
4547;SDS011;2286;51.570;7.090;2022-09-21T05:32:08;14.17;;;12.80;;
4547;SDS011;2286;51.570;7.090;2022-09-21T05:34:46;13.87;;;10.60;;
4547;SDS011;2286;51.570;7.090;2022-09-21T05:37:24;14.40;;;11.73;;
4547;SDS011;2286;51.570;7.090;2022-09-21T05:40:11;16.83;;;12.97;;
4547;SDS011;2286;51.570;7.090;2022-09-21T05:42:38;14.80;;;13.30;;
4547;SDS011;2286;51.570;7.090;2022-09-21T05:45:06;15.30;;;13.30;;
4547;SDS011;2286;51.570;7.090;2022-09-21T05:47:38;15.30;;;13.70;;
4547;SDS011;2286;51.570;7.090;2022-09-21T05:50:16;15.87;;;13.33;;
4547;SDS011;2286;51.570;7.090;2022-09-21T05:52:54;12.60;;;11.37;;
4547;SDS011;2286;51.570;7.090;2022-09-21T05:55:32;15.40;;;12.80;;
4547;SDS011;2286;51.570;7.090;2022-09-21T05:58:17;13.07;;;11.83;;
4547;SDS011;2286;51.570;7.090;2022-09-21T06:00:53;12.80;;;11.17;;
4547;SDS011;2286;51.570;7.090;2022-09-21T06:03:26;16.50;;;12.20;;
4547;SDS011;2286;51.570;7.090;2022-09-21T06:05:56;13.67;;;12.00;;
4547;SDS011;2286;51.570;7.090;2022-09-21T06:08:23;13.27;;;11.90;;
4547;SDS011;2286;51.570;7.090;2022-09-21T06:10:51;14.63;;;12.70;;
4547;SDS011;2286;51.570;7.090;2022-09-21T06:13:18;16.80;;;12.07;;
4547;SDS011;2286;51.570;7.090;2022-09-21T06:15:45;14.20;;;12.90;;
4547;SDS011;2286;51.570;7.090;2022-09-21T06:18:12;15.20;;;13.70;;
4547;SDS011;2286;51.570;7.090;2022-09-21T06:20:39;17.10;;;13.60;;
4547;SDS011;2286;51.570;7.090;2022-09-21T06:23:08;16.90;;;13.57;;
4547;SDS011;2286;51.570;7.090;2022-09-21T06:25:36;21.60;;;14.77;;
4547;SDS011;2286;51.570;7.090;2022-09-21T06:28:04;13.50;;;12.30;;
4547;SDS011;2286;51.570;7.090;2022-09-21T06:30:32;15.13;;;13.60;;
4547;SDS011;2286;51.570;7.090;2022-09-21T06:33:00;14.80;;;13.40;;
4547;SDS011;2286;51.570;7.090;2022-09-21T06:35:28;14.90;;;13.60;;
4547;SDS011;2286;51.570;7.090;2022-09-21T06:37:56;17.97;;;14.27;;
4547;SDS011;2286;51.570;7.090;2022-09-21T06:40:26;17.90;;;12.90;;
4547;SDS011;2286;51.570;7.090;2022-09-21T06:42:56;24.23;;;14.03;;
4547;SDS011;2286;51.570;7.090;2022-09-21T06:45:23;14.50;;;13.03;;
4547;SDS011;2286;51.570;7.090;2022-09-21T06:47:50;17.63;;;13.30;;
4547;SDS011;2286;51.570;7.090;2022-09-21T06:50:16;19.60;;;14.80;;
4547;SDS011;2286;51.570;7.090;2022-09-21T06:52:43;19.50;;;15.50;;
4547;SDS011;2286;51.570;7.090;2022-09-21T06:55:10;17.30;;;14.00;;
4547;SDS011;2286;51.570;7.090;2022-09-21T06:57:39;16.67;;;15.10;;
4547;SDS011;2286;51.570;7.090;2022-09-21T07:00:07;17.70;;;15.50;;
4547;SDS011;2286;51.570;7.090;2022-09-21T07:02:36;18.40;;;16.20;;
4547;SDS011;2286;51.570;7.090;2022-09-21T07:05:03;16.47;;;14.87;;
4547;SDS011;2286;51.570;7.090;2022-09-21T07:07:31;24.53;;;16.83;;
4547;SDS011;2286;51.570;7.090;2022-09-21T07:09:58;19.60;;;16.23;;
4547;SDS011;2286;51.570;7.090;2022-09-21T07:12:26;20.40;;;18.30;;
4547;SDS011;2286;51.570;7.090;2022-09-21T07:14:54;19.73;;;17.63;;
4547;SDS011;2286;51.570;7.090;2022-09-21T07:17:21;20.00;;;17.93;;
4547;SDS011;2286;51.570;7.090;2022-09-21T07:19:48;23.17;;;19.50;;
4547;SDS011;2286;51.570;7.090;2022-09-21T07:22:15;20.60;;;18.50;;
4547;SDS011;2286;51.570;7.090;2022-09-21T07:24:41;21.13;;;18.57;;
4547;SDS011;2286;51.570;7.090;2022-09-21T07:27:08;20.70;;;17.83;;
4547;SDS011;2286;51.570;7.090;2022-09-21T07:29:35;20.20;;;18.30;;
4547;SDS011;2286;51.570;7.090;2022-09-21T07:32:03;20.17;;;17.40;;
4547;SDS011;2286;51.570;7.090;2022-09-21T07:34:33;22.33;;;17.90;;
4547;SDS011;2286;51.570;7.090;2022-09-21T07:37:01;19.47;;;17.57;;
4547;SDS011;2286;51.570;7.090;2022-09-21T07:39:28;21.77;;;19.20;;
4547;SDS011;2286;51.570;7.090;2022-09-21T07:41:55;23.07;;;19.17;;
4547;SDS011;2286;51.570;7.090;2022-09-21T07:44:22;19.57;;;17.47;;
4547;SDS011;2286;51.570;7.090;2022-09-21T07:46:49;20.57;;;18.30;;
4547;SDS011;2286;51.570;7.090;2022-09-21T07:49:17;21.83;;;18.73;;
4547;SDS011;2286;51.570;7.090;2022-09-21T07:51:44;21.80;;;17.30;;
4547;SDS011;2286;51.570;7.090;2022-09-21T07:54:11;21.13;;;17.27;;
4547;SDS011;2286;51.570;7.090;2022-09-21T07:56:39;17.53;;;15.70;;
4547;SDS011;2286;51.570;7.090;2022-09-21T07:59:06;15.97;;;13.67;;
4547;SDS011;2286;51.570;7.090;2022-09-21T08:01:32;19.93;;;14.17;;
4547;SDS011;2286;51.570;7.090;2022-09-21T08:04:00;15.20;;;12.57;;
4547;SDS011;2286;51.570;7.090;2022-09-21T08:06:29;18.30;;;14.97;;
4547;SDS011;2286;51.570;7.090;2022-09-21T08:08:57;17.20;;;14.60;;
4547;SDS011;2286;51.570;7.090;2022-09-21T08:11:24;15.20;;;13.63;;
4547;SDS011;2286;51.570;7.090;2022-09-21T08:13:52;22.60;;;13.47;;
4547;SDS011;2286;51.570;7.090;2022-09-21T08:16:20;13.60;;;12.10;;
4547;SDS011;2286;51.570;7.090;2022-09-21T08:18:47;16.10;;;12.80;;
4547;SDS011;2286;51.570;7.090;2022-09-21T08:21:15;17.33;;;14.63;;
4547;SDS011;2286;51.570;7.090;2022-09-21T08:23:43;15.30;;;11.53;;
4547;SDS011;2286;51.570;7.090;2022-09-21T08:26:10;12.93;;;10.70;;
4547;SDS011;2286;51.570;7.090;2022-09-21T08:28:40;17.87;;;15.00;;
4547;SDS011;2286;51.570;7.090;2022-09-21T08:31:08;19.17;;;14.00;;
4547;SDS011;2286;51.570;7.090;2022-09-21T08:33:35;19.90;;;12.00;;
4547;SDS011;2286;51.570;7.090;2022-09-21T08:36:02;16.73;;;11.83;;
4547;SDS011;2286;51.570;7.090;2022-09-21T08:38:31;16.93;;;11.67;;
4547;SDS011;2286;51.570;7.090;2022-09-21T08:41:00;14.20;;;11.10;;
4547;SDS011;2286;51.570;7.090;2022-09-21T08:43:29;11.40;;;7.87;;
4547;SDS011;2286;51.570;7.090;2022-09-21T08:46:02;15.80;;;9.33;;
4547;SDS011;2286;51.570;7.090;2022-09-21T08:48:31;15.17;;;10.57;;
4547;SDS011;2286;51.570;7.090;2022-09-21T08:51:04;15.40;;;9.00;;
4547;SDS011;2286;51.570;7.090;2022-09-21T08:53:35;16.03;;;8.20;;
4547;SDS011;2286;51.570;7.090;2022-09-21T08:56:07;11.50;;;7.40;;
4547;SDS011;2286;51.570;7.090;2022-09-21T08:58:36;12.13;;;6.30;;
4547;SDS011;2286;51.570;7.090;2022-09-21T09:01:07;9.03;;;6.13;;
4547;SDS011;2286;51.570;7.090;2022-09-21T09:06:39;11.47;;;6.17;;
4547;SDS011;2286;51.570;7.090;2022-09-21T09:09:18;11.50;;;5.27;;
4547;SDS011;2286;51.570;7.090;2022-09-21T09:12:16;11.80;;;5.90;;
4547;SDS011;2286;51.570;7.090;2022-09-21T09:15:02;11.23;;;4.90;;
4547;SDS011;2286;51.570;7.090;2022-09-21T09:17:47;8.17;;;4.70;;
4547;SDS011;2286;51.570;7.090;2022-09-21T09:20:18;4.47;;;3.20;;
4547;SDS011;2286;51.570;7.090;2022-09-21T09:22:49;5.60;;;3.30;;
4547;SDS011;2286;51.570;7.090;2022-09-21T09:25:23;3.77;;;2.40;;
4547;SDS011;2286;51.570;7.090;2022-09-21T09:27:52;3.33;;;1.93;;
4547;SDS011;2286;51.570;7.090;2022-09-21T09:30:22;3.20;;;1.80;;
4547;SDS011;2286;51.570;7.090;2022-09-21T09:32:52;6.23;;;1.87;;
4547;SDS011;2286;51.570;7.090;2022-09-21T09:35:27;8.03;;;2.23;;
4547;SDS011;2286;51.570;7.090;2022-09-21T09:37:59;9.33;;;2.70;;
4547;SDS011;2286;51.570;7.090;2022-09-21T09:40:45;9.57;;;2.57;;
4547;SDS011;2286;51.570;7.090;2022-09-21T09:43:24;4.37;;;2.00;;
4547;SDS011;2286;51.570;7.090;2022-09-21T09:46:02;5.03;;;2.00;;
4547;SDS011;2286;51.570;7.090;2022-09-21T09:48:41;5.00;;;1.93;;
4547;SDS011;2286;51.570;7.090;2022-09-21T09:51:20;3.90;;;1.70;;
4547;SDS011;2286;51.570;7.090;2022-09-21T09:53:47;5.70;;;1.43;;
4547;SDS011;2286;51.570;7.090;2022-09-21T09:56:14;3.13;;;1.53;;
4547;SDS011;2286;51.570;7.090;2022-09-21T09:58:45;4.07;;;2.03;;
4547;SDS011;2286;51.570;7.090;2022-09-21T10:04:03;2.37;;;1.50;;
4547;SDS011;2286;51.570;7.090;2022-09-21T10:06:31;3.20;;;1.20;;
4547;SDS011;2286;51.570;7.090;2022-09-21T10:08:58;3.53;;;1.40;;
4547;SDS011;2286;51.570;7.090;2022-09-21T10:11:33;2.80;;;1.20;;
4547;SDS011;2286;51.570;7.090;2022-09-21T10:14:09;5.40;;;1.40;;
4547;SDS011;2286;51.570;7.090;2022-09-21T10:16:42;2.80;;;1.50;;
4547;SDS011;2286;51.570;7.090;2022-09-21T10:19:13;3.17;;;1.60;;
4547;SDS011;2286;51.570;7.090;2022-09-21T10:21:42;5.17;;;1.67;;
4547;SDS011;2286;51.570;7.090;2022-09-21T10:24:16;3.87;;;1.50;;
4547;SDS011;2286;51.570;7.090;2022-09-21T10:26:47;4.60;;;1.70;;
4547;SDS011;2286;51.570;7.090;2022-09-21T10:29:29;4.13;;;1.63;;
4547;SDS011;2286;51.570;7.090;2022-09-21T10:31:58;2.03;;;1.30;;
4547;SDS011;2286;51.570;7.090;2022-09-21T10:34:27;4.87;;;2.07;;
4547;SDS011;2286;51.570;7.090;2022-09-21T10:36:56;3.90;;;1.60;;
4547;SDS011;2286;51.570;7.090;2022-09-21T10:39:28;4.27;;;1.80;;
4547;SDS011;2286;51.570;7.090;2022-09-21T10:41:57;3.43;;;1.33;;
4547;SDS011;2286;51.570;7.090;2022-09-21T10:44:33;2.27;;;1.37;;
4547;SDS011;2286;51.570;7.090;2022-09-21T10:47:12;1.80;;;1.10;;
4547;SDS011;2286;51.570;7.090;2022-09-21T10:49:47;3.10;;;1.40;;
4547;SDS011;2286;51.570;7.090;2022-09-21T10:52:15;4.17;;;1.57;;
4547;SDS011;2286;51.570;7.090;2022-09-21T10:54:44;3.53;;;1.70;;
4547;SDS011;2286;51.570;7.090;2022-09-21T10:57:16;3.30;;;1.57;;
4547;SDS011;2286;51.570;7.090;2022-09-21T10:59:47;2.70;;;1.17;;
4547;SDS011;2286;51.570;7.090;2022-09-21T11:02:24;3.00;;;1.80;;
4547;SDS011;2286;51.570;7.090;2022-09-21T11:04:59;4.30;;;1.30;;
4547;SDS011;2286;51.570;7.090;2022-09-21T11:07:30;1.50;;;1.00;;
4547;SDS011;2286;51.570;7.090;2022-09-21T11:10:07;5.83;;;1.40;;
4547;SDS011;2286;51.570;7.090;2022-09-21T11:12:42;6.37;;;1.50;;
4547;SDS011;2286;51.570;7.090;2022-09-21T11:15:22;2.00;;;1.30;;
4547;SDS011;2286;51.570;7.090;2022-09-21T11:18:05;2.03;;;1.30;;
4547;SDS011;2286;51.570;7.090;2022-09-21T11:20:41;2.37;;;1.67;;
4547;SDS011;2286;51.570;7.090;2022-09-21T11:23:15;3.93;;;1.20;;
4547;SDS011;2286;51.570;7.090;2022-09-21T11:25:52;3.27;;;1.33;;
4547;SDS011;2286;51.570;7.090;2022-09-21T11:28:25;1.77;;;1.20;;
4547;SDS011;2286;51.570;7.090;2022-09-21T11:31:03;3.40;;;1.70;;
4547;SDS011;2286;51.570;7.090;2022-09-21T11:33:51;2.30;;;1.17;;
4547;SDS011;2286;51.570;7.090;2022-09-21T11:36:31;6.47;;;1.90;;
4547;SDS011;2286;51.570;7.090;2022-09-21T11:39:10;2.90;;;1.20;;
4547;SDS011;2286;51.570;7.090;2022-09-21T11:41:53;2.97;;;1.30;;
4547;SDS011;2286;51.570;7.090;2022-09-21T11:44:32;2.60;;;1.30;;
4547;SDS011;2286;51.570;7.090;2022-09-21T11:47:19;4.83;;;1.70;;
4547;SDS011;2286;51.570;7.090;2022-09-21T11:50:08;4.10;;;1.00;;
4547;SDS011;2286;51.570;7.090;2022-09-21T11:52:50;2.20;;;1.27;;
4547;SDS011;2286;51.570;7.090;2022-09-21T11:58:23;4.50;;;1.40;;
4547;SDS011;2286;51.570;7.090;2022-09-21T12:00:59;8.00;;;1.57;;
4547;SDS011;2286;51.570;7.090;2022-09-21T12:03:42;2.13;;;1.00;;
4547;SDS011;2286;51.570;7.090;2022-09-21T12:06:18;4.53;;;1.30;;
4547;SDS011;2286;51.570;7.090;2022-09-21T12:08:56;2.87;;;0.80;;
4547;SDS011;2286;51.570;7.090;2022-09-21T12:11:38;4.77;;;1.70;;
4547;SDS011;2286;51.570;7.090;2022-09-21T12:14:13;3.23;;;1.03;;
4547;SDS011;2286;51.570;7.090;2022-09-21T12:16:49;4.00;;;1.37;;
4547;SDS011;2286;51.570;7.090;2022-09-21T12:19:25;6.50;;;1.20;;
4547;SDS011;2286;51.570;7.090;2022-09-21T12:22:01;3.13;;;1.30;;
4547;SDS011;2286;51.570;7.090;2022-09-21T12:24:32;3.30;;;1.63;;
4547;SDS011;2286;51.570;7.090;2022-09-21T12:27:02;3.70;;;1.10;;
4547;SDS011;2286;51.570;7.090;2022-09-21T12:29:36;4.83;;;1.73;;
4547;SDS011;2286;51.570;7.090;2022-09-21T12:32:10;5.90;;;1.20;;
4547;SDS011;2286;51.570;7.090;2022-09-21T12:34:47;3.80;;;1.20;;
4547;SDS011;2286;51.570;7.090;2022-09-21T12:37:20;2.60;;;1.00;;
4547;SDS011;2286;51.570;7.090;2022-09-21T12:39:53;1.60;;;1.10;;
4547;SDS011;2286;51.570;7.090;2022-09-21T12:42:25;1.80;;;1.40;;
4547;SDS011;2286;51.570;7.090;2022-09-21T12:44:57;1.50;;;0.90;;
4547;SDS011;2286;51.570;7.090;2022-09-21T12:47:28;2.40;;;1.17;;
4547;SDS011;2286;51.570;7.090;2022-09-21T12:52:55;1.87;;;1.10;;
4547;SDS011;2286;51.570;7.090;2022-09-21T12:58:16;2.93;;;1.57;;
4547;SDS011;2286;51.570;7.090;2022-09-21T13:00:56;2.83;;;1.20;;
4547;SDS011;2286;51.570;7.090;2022-09-21T13:03:29;3.17;;;1.20;;
4547;SDS011;2286;51.570;7.090;2022-09-21T13:06:19;1.37;;;1.00;;
4547;SDS011;2286;51.570;7.090;2022-09-21T13:09:03;1.57;;;1.17;;
4547;SDS011;2286;51.570;7.090;2022-09-21T13:11:34;2.77;;;1.47;;
4547;SDS011;2286;51.570;7.090;2022-09-21T13:14:16;5.47;;;1.20;;
4547;SDS011;2286;51.570;7.090;2022-09-21T13:16:43;3.07;;;1.20;;
4547;SDS011;2286;51.570;7.090;2022-09-21T13:19:22;2.70;;;1.17;;
4547;SDS011;2286;51.570;7.090;2022-09-21T13:24:38;2.80;;;1.30;;
4547;SDS011;2286;51.570;7.090;2022-09-21T13:27:07;3.00;;;1.33;;
4547;SDS011;2286;51.570;7.090;2022-09-21T13:29:35;4.40;;;1.20;;
4547;SDS011;2286;51.570;7.090;2022-09-21T13:32:19;7.93;;;1.33;;
4547;SDS011;2286;51.570;7.090;2022-09-21T13:34:47;1.93;;;1.20;;
4547;SDS011;2286;51.570;7.090;2022-09-21T13:37:24;5.40;;;1.40;;
4547;SDS011;2286;51.570;7.090;2022-09-21T13:52:25;1.50;;;0.90;;
4547;SDS011;2286;51.570;7.090;2022-09-21T13:54:56;2.43;;;1.53;;
4547;SDS011;2286;51.570;7.090;2022-09-21T13:57:27;3.20;;;1.40;;
4547;SDS011;2286;51.570;7.090;2022-09-21T14:00:02;2.90;;;1.40;;
4547;SDS011;2286;51.570;7.090;2022-09-21T14:02:52;2.70;;;1.20;;
4547;SDS011;2286;51.570;7.090;2022-09-21T14:05:25;2.10;;;0.90;;
4547;SDS011;2286;51.570;7.090;2022-09-21T14:07:58;1.80;;;1.10;;
4547;SDS011;2286;51.570;7.090;2022-09-21T14:10:27;3.50;;;1.00;;
4547;SDS011;2286;51.570;7.090;2022-09-21T14:12:56;4.40;;;1.10;;
4547;SDS011;2286;51.570;7.090;2022-09-21T14:15:33;5.63;;;1.30;;
4547;SDS011;2286;51.570;7.090;2022-09-21T14:18:15;3.57;;;1.30;;
4547;SDS011;2286;51.570;7.090;2022-09-21T14:21:12;2.47;;;1.20;;
4547;SDS011;2286;51.570;7.090;2022-09-21T14:26:51;2.70;;;1.53;;
4547;SDS011;2286;51.570;7.090;2022-09-21T14:29:38;1.50;;;1.20;;
4547;SDS011;2286;51.570;7.090;2022-09-21T14:32:12;4.00;;;1.30;;
4547;SDS011;2286;51.570;7.090;2022-09-21T14:34:43;2.43;;;1.17;;
4547;SDS011;2286;51.570;7.090;2022-09-21T14:37:15;2.67;;;1.37;;
4547;SDS011;2286;51.570;7.090;2022-09-21T14:39:52;2.80;;;1.50;;
4547;SDS011;2286;51.570;7.090;2022-09-21T14:42:22;1.60;;;1.03;;
4547;SDS011;2286;51.570;7.090;2022-09-21T14:44:52;2.37;;;1.10;;
4547;SDS011;2286;51.570;7.090;2022-09-21T14:50:31;2.30;;;1.40;;
4547;SDS011;2286;51.570;7.090;2022-09-21T14:56:08;3.57;;;1.20;;
4547;SDS011;2286;51.570;7.090;2022-09-21T14:59:02;3.80;;;1.40;;
4547;SDS011;2286;51.570;7.090;2022-09-21T15:01:40;2.60;;;1.50;;
4547;SDS011;2286;51.570;7.090;2022-09-21T15:04:29;2.20;;;1.17;;
4547;SDS011;2286;51.570;7.090;2022-09-21T15:07:06;7.13;;;1.80;;
4547;SDS011;2286;51.570;7.090;2022-09-21T15:13:17;2.33;;;1.20;;
4547;SDS011;2286;51.570;7.090;2022-09-21T15:16:01;2.00;;;0.90;;
4547;SDS011;2286;51.570;7.090;2022-09-21T15:18:43;1.83;;;1.70;;
4547;SDS011;2286;51.570;7.090;2022-09-21T15:21:18;3.33;;;1.20;;
4547;SDS011;2286;51.570;7.090;2022-09-21T15:23:48;1.47;;;1.10;;
4547;SDS011;2286;51.570;7.090;2022-09-21T15:26:17;2.27;;;1.17;;
4547;SDS011;2286;51.570;7.090;2022-09-21T15:28:48;1.50;;;1.23;;
4547;SDS011;2286;51.570;7.090;2022-09-21T15:31:20;1.60;;;1.27;;
4547;SDS011;2286;51.570;7.090;2022-09-21T15:33:47;2.07;;;1.20;;
4547;SDS011;2286;51.570;7.090;2022-09-21T15:36:18;1.70;;;1.27;;
4547;SDS011;2286;51.570;7.090;2022-09-21T15:38:46;2.17;;;1.20;;
4547;SDS011;2286;51.570;7.090;2022-09-21T15:41:17;2.40;;;1.30;;
4547;SDS011;2286;51.570;7.090;2022-09-21T15:44:05;1.77;;;0.90;;
4547;SDS011;2286;51.570;7.090;2022-09-21T15:46:39;2.20;;;0.90;;
4547;SDS011;2286;51.570;7.090;2022-09-21T15:49:09;1.77;;;1.07;;
4547;SDS011;2286;51.570;7.090;2022-09-21T15:51:38;1.93;;;1.20;;
4547;SDS011;2286;51.570;7.090;2022-09-21T15:54:22;2.20;;;1.33;;
4547;SDS011;2286;51.570;7.090;2022-09-21T15:56:54;1.87;;;1.10;;
4547;SDS011;2286;51.570;7.090;2022-09-21T15:59:21;3.37;;;1.50;;
4547;SDS011;2286;51.570;7.090;2022-09-21T16:01:50;1.67;;;0.97;;
4547;SDS011;2286;51.570;7.090;2022-09-21T16:04:20;3.23;;;0.97;;
4547;SDS011;2286;51.570;7.090;2022-09-21T16:06:56;3.33;;;1.40;;
4547;SDS011;2286;51.570;7.090;2022-09-21T16:09:27;1.97;;;1.17;;
4547;SDS011;2286;51.570;7.090;2022-09-21T16:14:58;3.03;;;1.50;;
4547;SDS011;2286;51.570;7.090;2022-09-21T16:17:27;2.10;;;1.30;;
4547;SDS011;2286;51.570;7.090;2022-09-21T16:20:04;2.40;;;1.20;;
4547;SDS011;2286;51.570;7.090;2022-09-21T16:22:41;2.67;;;1.00;;
4547;SDS011;2286;51.570;7.090;2022-09-21T16:25:13;4.23;;;1.50;;